< < Back
Terminal Aerodrome Forecast


Current Version              Previous Versions:   1  2  3  4  5  6  7  8  9  

Terminal Aerodrome Forecast

743
FTUS42 KGSP 241126
TAFHKY
TAF
KHKY 241126Z 2412/2512 20003KT P6SM FEW250
     FM241700 18009KT P6SM FEW250
     FM250300 00000KT P6SM FEW250
     FM251000 00000KT P6SM SCT050=



Latest METAR

985
SAUS70 KWBC 251100 RRC
MTRHKY
METAR KHKY 251053Z 18003KT 10SM CLR 15/13 A3033 RMK AO2 SLP253
T01500128


USA.gov is the U.S. government's official web portal to all federal, state and local government web resources and services.